sensor_id;sensor_type;location;lat;lon;timestamp;temperature;humidity
22682;DHT22;11508;50.856;4.380;2023-09-19T00:01:43;15.90;1.00
22682;DHT22;11508;50.856;4.380;2023-09-19T00:04:20;15.80;1.00
22682;DHT22;11508;50.856;4.380;2023-09-19T00:09:15;15.90;1.00
22682;DHT22;11508;50.856;4.380;2023-09-19T00:11:42;15.80;1.20
22682;DHT22;11508;50.856;4.380;2023-09-19T00:14:08;15.80;1.80
22682;DHT22;11508;50.856;4.380;2023-09-19T00:21:33;15.70;13.60
22682;DHT22;11508;50.856;4.380;2023-09-19T00:26:25;15.70;13.20
22682;DHT22;11508;50.856;4.380;2023-09-19T00:28:53;15.70;13.60
22682;DHT22;11508;50.856;4.380;2023-09-19T00:31:19;15.70;12.90
22682;DHT22;11508;50.856;4.380;2023-09-19T00:33:45;15.70;9.80
22682;DHT22;11508;50.856;4.380;2023-09-19T00:36:11;15.70;8.60
22682;DHT22;11508;50.856;4.380;2023-09-19T00:38:37;15.70;6.30
22682;DHT22;11508;50.856;4.380;2023-09-19T00:41:02;15.70;2.60
22682;DHT22;11508;50.856;4.380;2023-09-19T00:43:28;15.70;1.00
22682;DHT22;11508;50.856;4.380;2023-09-19T00:45:56;15.70;1.00
22682;DHT22;11508;50.856;4.380;2023-09-19T00:48:23;15.70;1.00
22682;DHT22;11508;50.856;4.380;2023-09-19T00:50:51;15.70;1.00
22682;DHT22;11508;50.856;4.380;2023-09-19T00:53:20;15.60;1.00
22682;DHT22;11508;50.856;4.380;2023-09-19T00:55:47;15.60;1.00
22682;DHT22;11508;50.856;4.380;2023-09-19T01:00:40;15.60;1.00
22682;DHT22;11508;50.856;4.380;2023-09-19T01:03:06;15.60;1.00
22682;DHT22;11508;50.856;4.380;2023-09-19T01:05:33;15.60;1.00
22682;DHT22;11508;50.856;4.380;2023-09-19T01:10:26;15.70;1.00
22682;DHT22;11508;50.856;4.380;2023-09-19T01:20:44;15.60;1.00
22682;DHT22;11508;50.856;4.380;2023-09-19T01:31:47;15.50;1.00
22682;DHT22;11508;50.856;4.380;2023-09-19T01:34:14;15.60;1.00
22682;DHT22;11508;50.856;4.380;2023-09-19T01:36:40;15.60;1.00
22682;DHT22;11508;50.856;4.380;2023-09-19T01:39:11;15.50;1.00
22682;DHT22;11508;50.856;4.380;2023-09-19T01:44:36;15.70;1.00
22682;DHT22;11508;50.856;4.380;2023-09-19T01:47:28;15.70;1.00
22682;DHT22;11508;50.856;4.380;2023-09-19T01:52:58;15.50;1.00
22682;DHT22;11508;50.856;4.380;2023-09-19T01:55:30;15.50;1.00
22682;DHT22;11508;50.856;4.380;2023-09-19T02:00:30;15.40;1.00
22682;DHT22;11508;50.856;4.380;2023-09-19T02:02:59;15.40;1.00
22682;DHT22;11508;50.856;4.380;2023-09-19T02:05:25;15.40;1.00
22682;DHT22;11508;50.856;4.380;2023-09-19T02:07:53;15.40;1.00
22682;DHT22;11508;50.856;4.380;2023-09-19T02:10:19;15.40;1.00
22682;DHT22;11508;50.856;4.380;2023-09-19T02:12:45;15.40;1.00
22682;DHT22;11508;50.856;4.380;2023-09-19T02:15:12;15.40;1.00
22682;DHT22;11508;50.856;4.380;2023-09-19T02:17:39;15.30;1.00
22682;DHT22;11508;50.856;4.380;2023-09-19T02:22:35;15.50;1.00
22682;DHT22;11508;50.856;4.380;2023-09-19T02:27:27;15.40;1.00
22682;DHT22;11508;50.856;4.380;2023-09-19T02:29:53;15.50;1.00
22682;DHT22;11508;50.856;4.380;2023-09-19T02:34:45;15.50;1.00
22682;DHT22;11508;50.856;4.380;2023-09-19T02:37:11;15.40;1.00
22682;DHT22;11508;50.856;4.380;2023-09-19T02:42:06;15.40;1.00
22682;DHT22;11508;50.856;4.380;2023-09-19T02:44:32;15.40;1.00
22682;DHT22;11508;50.856;4.380;2023-09-19T02:46:58;15.40;1.00
22682;DHT22;11508;50.856;4.380;2023-09-19T02:49:24;15.50;1.00
22682;DHT22;11508;50.856;4.380;2023-09-19T02:51:49;15.40;1.00
22682;DHT22;11508;50.856;4.380;2023-09-19T02:54:15;15.30;1.00
22682;DHT22;11508;50.856;4.380;2023-09-19T02:56:41;15.30;1.00
22682;DHT22;11508;50.856;4.380;2023-09-19T02:59:07;15.40;1.00
22682;DHT22;11508;50.856;4.380;2023-09-19T03:01:35;15.30;1.00
22682;DHT22;11508;50.856;4.380;2023-09-19T03:04:02;15.30;1.00
22682;DHT22;11508;50.856;4.380;2023-09-19T03:06:28;15.30;1.00
22682;DHT22;11508;50.856;4.380;2023-09-19T03:08:56;15.40;1.00
22682;DHT22;11508;50.856;4.380;2023-09-19T03:11:22;15.30;1.00
22682;DHT22;11508;50.856;4.380;2023-09-19T03:16:18;15.40;1.00
22682;DHT22;11508;50.856;4.380;2023-09-19T03:18:47;15.30;1.00
22682;DHT22;11508;50.856;4.380;2023-09-19T03:21:15;15.40;1.00
22682;DHT22;11508;50.856;4.380;2023-09-19T03:23:43;15.30;1.00
22682;DHT22;11508;50.856;4.380;2023-09-19T03:26:13;15.10;1.00
22682;DHT22;11508;50.856;4.380;2023-09-19T03:31:08;15.10;1.00
22682;DHT22;11508;50.856;4.380;2023-09-19T03:33:34;15.00;1.00
22682;DHT22;11508;50.856;4.380;2023-09-19T03:36:01;15.00;1.00
22682;DHT22;11508;50.856;4.380;2023-09-19T03:38:30;15.00;1.00
22682;DHT22;11508;50.856;4.380;2023-09-19T03:43:22;14.90;1.00
22682;DHT22;11508;50.856;4.380;2023-09-19T03:45:47;14.90;1.00
22682;DHT22;11508;50.856;4.380;2023-09-19T03:48:14;14.90;1.00
22682;DHT22;11508;50.856;4.380;2023-09-19T03:53:09;14.90;1.00
22682;DHT22;11508;50.856;4.380;2023-09-19T03:58:02;14.90;1.00
22682;DHT22;11508;50.856;4.380;2023-09-19T04:00:27;14.90;1.00
22682;DHT22;11508;50.856;4.380;2023-09-19T04:05:22;15.00;1.00
22682;DHT22;11508;50.856;4.380;2023-09-19T04:07:48;15.00;1.00
22682;DHT22;11508;50.856;4.380;2023-09-19T04:10:15;15.00;1.00
22682;DHT22;11508;50.856;4.380;2023-09-19T04:12:53;14.90;1.00
22682;DHT22;11508;50.856;4.380;2023-09-19T04:15:19;14.90;1.00
22682;DHT22;11508;50.856;4.380;2023-09-19T04:17:49;14.80;1.00
22682;DHT22;11508;50.856;4.380;2023-09-19T04:20:15;14.80;1.00
22682;DHT22;11508;50.856;4.380;2023-09-19T04:22:41;14.80;1.00
22682;DHT22;11508;50.856;4.380;2023-09-19T04:25:07;14.90;1.00
22682;DHT22;11508;50.856;4.380;2023-09-19T04:30:00;14.80;1.00
22682;DHT22;11508;50.856;4.380;2023-09-19T04:32:28;14.80;1.00
22682;DHT22;11508;50.856;4.380;2023-09-19T04:34:54;14.90;1.00
22682;DHT22;11508;50.856;4.380;2023-09-19T04:37:25;14.80;1.00
22682;DHT22;11508;50.856;4.380;2023-09-19T04:39:51;14.80;1.00
22682;DHT22;11508;50.856;4.380;2023-09-19T04:42:16;14.80;1.00
22682;DHT22;11508;50.856;4.380;2023-09-19T04:47:09;14.80;1.00
22682;DHT22;11508;50.856;4.380;2023-09-19T04:52:05;14.70;1.00
22682;DHT22;11508;50.856;4.380;2023-09-19T04:54:31;14.80;2.40
22682;DHT22;11508;50.856;4.380;2023-09-19T04:56:56;14.70;3.40
22682;DHT22;11508;50.856;4.380;2023-09-19T04:59:22;14.70;2.00
22682;DHT22;11508;50.856;4.380;2023-09-19T05:01:48;14.70;1.50
22682;DHT22;11508;50.856;4.380;2023-09-19T05:04:14;14.70;3.40
22682;DHT22;11508;50.856;4.380;2023-09-19T05:06:40;14.70;4.10
22682;DHT22;11508;50.856;4.380;2023-09-19T05:11:32;14.60;6.10
22682;DHT22;11508;50.856;4.380;2023-09-19T05:13:58;14.60;7.20
22682;DHT22;11508;50.856;4.380;2023-09-19T05:16:29;14.60;6.90
22682;DHT22;11508;50.856;4.380;2023-09-19T05:21:25;14.60;9.20
22682;DHT22;11508;50.856;4.380;2023-09-19T05:28:46;14.60;10.70
22682;DHT22;11508;50.856;4.380;2023-09-19T05:31:13;14.70;11.10
22682;DHT22;11508;50.856;4.380;2023-09-19T05:33:40;14.70;14.50
22682;DHT22;11508;50.856;4.380;2023-09-19T05:36:06;14.60;14.80
22682;DHT22;11508;50.856;4.380;2023-09-19T05:41:01;14.60;14.10
22682;DHT22;11508;50.856;4.380;2023-09-19T05:43:27;14.70;14.20
22682;DHT22;11508;50.856;4.380;2023-09-19T05:48:22;14.70;15.00
22682;DHT22;11508;50.856;4.380;2023-09-19T05:50:48;14.70;12.70
22682;DHT22;11508;50.856;4.380;2023-09-19T05:53:14;14.80;12.60
22682;DHT22;11508;50.856;4.380;2023-09-19T05:55:40;14.70;12.50
22682;DHT22;11508;50.856;4.380;2023-09-19T06:00:32;14.80;10.70
22682;DHT22;11508;50.856;4.380;2023-09-19T06:02:59;14.80;8.00
22682;DHT22;11508;50.856;4.380;2023-09-19T06:05:28;14.80;7.10
22682;DHT22;11508;50.856;4.380;2023-09-19T06:07:56;14.90;5.50
22682;DHT22;11508;50.856;4.380;2023-09-19T06:10:26;14.90;5.20
22682;DHT22;11508;50.856;4.380;2023-09-19T06:12:53;14.90;6.10
22682;DHT22;11508;50.856;4.380;2023-09-19T06:15:20;14.90;5.70
22682;DHT22;11508;50.856;4.380;2023-09-19T06:17:54;15.00;5.80
22682;DHT22;11508;50.856;4.380;2023-09-19T06:20:23;15.10;1.00
22682;DHT22;11508;50.856;4.380;2023-09-19T06:27:48;15.10;1.00
22682;DHT22;11508;50.856;4.380;2023-09-19T06:30:14;15.10;1.00
22682;DHT22;11508;50.856;4.380;2023-09-19T06:32:41;15.10;1.00
22682;DHT22;11508;50.856;4.380;2023-09-19T06:35:13;15.20;1.00
22682;DHT22;11508;50.856;4.380;2023-09-19T06:37:41;15.20;1.00
22682;DHT22;11508;50.856;4.380;2023-09-19T06:40:11;15.10;1.00
22682;DHT22;11508;50.856;4.380;2023-09-19T06:42:51;15.10;1.00
22682;DHT22;11508;50.856;4.380;2023-09-19T06:45:18;15.10;1.00
22682;DHT22;11508;50.856;4.380;2023-09-19T06:50:20;15.20;1.00
22682;DHT22;11508;50.856;4.380;2023-09-19T06:52:49;15.10;1.00
22682;DHT22;11508;50.856;4.380;2023-09-19T06:55:19;15.10;1.00
22682;DHT22;11508;50.856;4.380;2023-09-19T06:57:48;15.10;1.00
22682;DHT22;11508;50.856;4.380;2023-09-19T07:00:15;15.10;1.00
22682;DHT22;11508;50.856;4.380;2023-09-19T07:03:05;15.20;1.00
22682;DHT22;11508;50.856;4.380;2023-09-19T07:08:04;15.20;1.00
22682;DHT22;11508;50.856;4.380;2023-09-19T07:13:04;15.20;1.00
22682;DHT22;11508;50.856;4.380;2023-09-19T07:15:35;15.30;1.00
22682;DHT22;11508;50.856;4.380;2023-09-19T07:18:05;15.20;1.00
22682;DHT22;11508;50.856;4.380;2023-09-19T07:20:31;15.20;1.00
22682;DHT22;11508;50.856;4.380;2023-09-19T07:22:58;15.40;1.00
22682;DHT22;11508;50.856;4.380;2023-09-19T07:25:30;15.40;1.00
22682;DHT22;11508;50.856;4.380;2023-09-19T07:27:56;15.40;1.00
22682;DHT22;11508;50.856;4.380;2023-09-19T07:32:51;15.50;1.00
22682;DHT22;11508;50.856;4.380;2023-09-19T07:35:20;15.30;1.00
22682;DHT22;11508;50.856;4.380;2023-09-19T07:40:17;15.70;1.00
22682;DHT22;11508;50.856;4.380;2023-09-19T07:42:43;15.70;1.00
22682;DHT22;11508;50.856;4.380;2023-09-19T07:45:11;15.80;1.00
22682;DHT22;11508;50.856;4.380;2023-09-19T07:47:44;16.00;1.00
22682;DHT22;11508;50.856;4.380;2023-09-19T07:52:36;16.00;1.00
22682;DHT22;11508;50.856;4.380;2023-09-19T07:57:34;15.90;1.00
22682;DHT22;11508;50.856;4.380;2023-09-19T08:00:00;16.10;1.00
22682;DHT22;11508;50.856;4.380;2023-09-19T08:02:26;16.10;1.00
22682;DHT22;11508;50.856;4.380;2023-09-19T08:04:53;16.10;1.00
22682;DHT22;11508;50.856;4.380;2023-09-19T08:07:19;16.20;1.00
22682;DHT22;11508;50.856;4.380;2023-09-19T08:14:40;16.10;1.00
22682;DHT22;11508;50.856;4.380;2023-09-19T08:17:08;16.10;1.00
22682;DHT22;11508;50.856;4.380;2023-09-19T08:24:29;16.20;1.00
22682;DHT22;11508;50.856;4.380;2023-09-19T08:29:25;16.50;1.00
22682;DHT22;11508;50.856;4.380;2023-09-19T08:31:57;16.40;1.00
22682;DHT22;11508;50.856;4.380;2023-09-19T08:34:24;16.60;1.00
22682;DHT22;11508;50.856;4.380;2023-09-19T08:36:54;16.70;1.00
22682;DHT22;11508;50.856;4.380;2023-09-19T08:39:26;16.80;1.00
22682;DHT22;11508;50.856;4.380;2023-09-19T08:42:01;16.90;1.00
22682;DHT22;11508;50.856;4.380;2023-09-19T08:44:28;16.90;1.00
22682;DHT22;11508;50.856;4.380;2023-09-19T08:47:17;16.90;1.00
22682;DHT22;11508;50.856;4.380;2023-09-19T08:52:22;16.90;99.90
22682;DHT22;11508;50.856;4.380;2023-09-19T08:54:52;17.00;99.90
22682;DHT22;11508;50.856;4.380;2023-09-19T08:57:19;16.90;99.90
22682;DHT22;11508;50.856;4.380;2023-09-19T08:59:48;17.10;99.90
22682;DHT22;11508;50.856;4.380;2023-09-19T09:02:16;17.00;99.90
22682;DHT22;11508;50.856;4.380;2023-09-19T09:07:14;17.30;99.90
22682;DHT22;11508;50.856;4.380;2023-09-19T09:09:40;17.40;99.90
22682;DHT22;11508;50.856;4.380;2023-09-19T09:12:13;17.50;99.90
22682;DHT22;11508;50.856;4.380;2023-09-19T09:14:48;17.60;99.90
22682;DHT22;11508;50.856;4.380;2023-09-19T09:19:41;17.70;99.90
22682;DHT22;11508;50.856;4.380;2023-09-19T09:22:09;17.80;48.30
22682;DHT22;11508;50.856;4.380;2023-09-19T09:24:35;17.90;1.00
22682;DHT22;11508;50.856;4.380;2023-09-19T09:27:05;18.20;99.90
22682;DHT22;11508;50.856;4.380;2023-09-19T09:29:50;18.40;99.90
22682;DHT22;11508;50.856;4.380;2023-09-19T09:32:20;18.40;99.90
22682;DHT22;11508;50.856;4.380;2023-09-19T09:34:56;18.30;1.00
22682;DHT22;11508;50.856;4.380;2023-09-19T09:40:01;18.10;99.90
22682;DHT22;11508;50.856;4.380;2023-09-19T09:42:42;18.10;99.90
22682;DHT22;11508;50.856;4.380;2023-09-19T09:45:20;18.10;99.90
22682;DHT22;11508;50.856;4.380;2023-09-19T09:47:54;18.00;99.90
22682;DHT22;11508;50.856;4.380;2023-09-19T09:50:36;18.20;17.70
22682;DHT22;11508;50.856;4.380;2023-09-19T09:53:23;18.10;99.90
22682;DHT22;11508;50.856;4.380;2023-09-19T09:56:06;18.10;99.90
22682;DHT22;11508;50.856;4.380;2023-09-19T09:58:37;18.10;1.00
22682;DHT22;11508;50.856;4.380;2023-09-19T10:01:06;18.10;10.70
22682;DHT22;11508;50.856;4.380;2023-09-19T10:06:10;18.30;1.00
22682;DHT22;11508;50.856;4.380;2023-09-19T10:09:17;18.30;1.00
22682;DHT22;11508;50.856;4.380;2023-09-19T10:12:05;18.70;46.80
22682;DHT22;11508;50.856;4.380;2023-09-19T10:14:38;18.50;91.70
22682;DHT22;11508;50.856;4.380;2023-09-19T10:17:05;18.80;99.90
22682;DHT22;11508;50.856;4.380;2023-09-19T10:19:52;19.20;1.00
22682;DHT22;11508;50.856;4.380;2023-09-19T10:22:23;19.20;99.90
22682;DHT22;11508;50.856;4.380;2023-09-19T10:24:51;19.30;99.90
22682;DHT22;11508;50.856;4.380;2023-09-19T10:27:19;19.40;99.90
22682;DHT22;11508;50.856;4.380;2023-09-19T10:29:48;19.60;99.90
22682;DHT22;11508;50.856;4.380;2023-09-19T10:32:16;19.70;99.90
22682;DHT22;11508;50.856;4.380;2023-09-19T10:34:46;19.90;99.90
22682;DHT22;11508;50.856;4.380;2023-09-19T10:37:13;19.70;99.90
22682;DHT22;11508;50.856;4.380;2023-09-19T10:39:40;19.60;99.90
22682;DHT22;11508;50.856;4.380;2023-09-19T10:42:07;19.60;99.90
22682;DHT22;11508;50.856;4.380;2023-09-19T10:44:37;19.90;1.00
22682;DHT22;11508;50.856;4.380;2023-09-19T10:47:08;20.30;1.00
22682;DHT22;11508;50.856;4.380;2023-09-19T10:49:34;20.40;99.90
22682;DHT22;11508;50.856;4.380;2023-09-19T10:52:01;20.60;99.90
22682;DHT22;11508;50.856;4.380;2023-09-19T10:54:35;21.00;12.00
22682;DHT22;11508;50.856;4.380;2023-09-19T10:57:04;21.00;1.00
22682;DHT22;11508;50.856;4.380;2023-09-19T10:59:30;21.50;99.90
22682;DHT22;11508;50.856;4.380;2023-09-19T11:02:16;21.20;99.90
22682;DHT22;11508;50.856;4.380;2023-09-19T11:04:42;21.00;99.90
22682;DHT22;11508;50.856;4.380;2023-09-19T11:07:14;20.50;99.90
22682;DHT22;11508;50.856;4.380;2023-09-19T11:12:12;21.10;99.90
22682;DHT22;11508;50.856;4.380;2023-09-19T11:14:41;21.80;1.00
22682;DHT22;11508;50.856;4.380;2023-09-19T11:33:17;20.70;56.90
22682;DHT22;11508;50.856;4.380;2023-09-19T11:46:52;19.80;1.00
22682;DHT22;11508;50.856;4.380;2023-09-19T11:49:19;20.00;1.00
22682;DHT22;11508;50.856;4.380;2023-09-19T11:51:51;19.90;1.00
22682;DHT22;11508;50.856;4.380;2023-09-19T11:54:20;20.00;1.00
22682;DHT22;11508;50.856;4.380;2023-09-19T11:59:23;20.40;99.90
22682;DHT22;11508;50.856;4.380;2023-09-19T12:02:03;20.50;99.90
22682;DHT22;11508;50.856;4.380;2023-09-19T12:04:42;20.60;99.90
22682;DHT22;11508;50.856;4.380;2023-09-19T12:07:15;20.00;99.90
22682;DHT22;11508;50.856;4.380;2023-09-19T12:12:26;19.90;1.00
22682;DHT22;11508;50.856;4.380;2023-09-19T12:14:53;19.70;1.00
22682;DHT22;11508;50.856;4.380;2023-09-19T12:17:20;19.60;99.90
22682;DHT22;11508;50.856;4.380;2023-09-19T12:19:53;19.70;99.90
22682;DHT22;11508;50.856;4.380;2023-09-19T12:22:19;19.90;99.90
22682;DHT22;11508;50.856;4.380;2023-09-19T12:24:46;19.70;99.90
22682;DHT22;11508;50.856;4.380;2023-09-19T12:27:12;19.80;99.90
22682;DHT22;11508;50.856;4.380;2023-09-19T12:29:49;20.30;1.00
22682;DHT22;11508;50.856;4.380;2023-09-19T12:34:52;20.20;1.00
22682;DHT22;11508;50.856;4.380;2023-09-19T12:37:20;20.00;1.00
22682;DHT22;11508;50.856;4.380;2023-09-19T12:39:49;19.90;9.90
22682;DHT22;11508;50.856;4.380;2023-09-19T12:42:24;19.90;16.20
22682;DHT22;11508;50.856;4.380;2023-09-19T12:50:15;21.80;98.20
22682;DHT22;11508;50.856;4.380;2023-09-19T12:55:25;19.90;99.90
22682;DHT22;11508;50.856;4.380;2023-09-19T12:57:59;19.90;99.90
22682;DHT22;11508;50.856;4.380;2023-09-19T13:00:35;19.90;99.90
22682;DHT22;11508;50.856;4.380;2023-09-19T13:06:07;19.80;99.90
22682;DHT22;11508;50.856;4.380;2023-09-19T13:08:37;20.00;99.90
22682;DHT22;11508;50.856;4.380;2023-09-19T13:11:15;19.90;99.90
22682;DHT22;11508;50.856;4.380;2023-09-19T13:13:48;20.00;99.90
22682;DHT22;11508;50.856;4.380;2023-09-19T13:16:15;20.00;99.90
22682;DHT22;11508;50.856;4.380;2023-09-19T13:18:55;19.90;99.90
22682;DHT22;11508;50.856;4.380;2023-09-19T13:21:33;19.90;99.90
22682;DHT22;11508;50.856;4.380;2023-09-19T13:24:22;19.90;99.90
22682;DHT22;11508;50.856;4.380;2023-09-19T13:29:21;19.90;99.90
22682;DHT22;11508;50.856;4.380;2023-09-19T13:31:51;19.90;99.90
22682;DHT22;11508;50.856;4.380;2023-09-19T13:34:20;19.90;99.90
22682;DHT22;11508;50.856;4.380;2023-09-19T13:41:44;20.10;99.90
22682;DHT22;11508;50.856;4.380;2023-09-19T13:46:38;20.20;99.90
22682;DHT22;11508;50.856;4.380;2023-09-19T13:51:33;19.90;99.90
22682;DHT22;11508;50.856;4.380;2023-09-19T13:56:25;19.90;99.90
22682;DHT22;11508;50.856;4.380;2023-09-19T13:58:56;19.80;99.90
22682;DHT22;11508;50.856;4.380;2023-09-19T14:06:17;19.90;99.90
22682;DHT22;11508;50.856;4.380;2023-09-19T14:08:44;19.90;1.00
22682;DHT22;11508;50.856;4.380;2023-09-19T14:11:13;19.90;1.00
22682;DHT22;11508;50.856;4.380;2023-09-19T14:13:42;20.00;1.00
22682;DHT22;11508;50.856;4.380;2023-09-19T14:16:12;20.00;1.00
22682;DHT22;11508;50.856;4.380;2023-09-19T14:18:38;19.90;1.00
22682;DHT22;11508;50.856;4.380;2023-09-19T14:21:05;20.20;99.90
22682;DHT22;11508;50.856;4.380;2023-09-19T14:23:37;20.10;99.90
22682;DHT22;11508;50.856;4.380;2023-09-19T14:28:31;20.10;99.90
22682;DHT22;11508;50.856;4.380;2023-09-19T14:31:04;20.20;99.90
22682;DHT22;11508;50.856;4.380;2023-09-19T14:35:57;20.20;99.90
22682;DHT22;11508;50.856;4.380;2023-09-19T14:38:23;20.20;99.90
22682;DHT22;11508;50.856;4.380;2023-09-19T14:43:16;20.10;99.90
22682;DHT22;11508;50.856;4.380;2023-09-19T14:45:41;20.00;99.90
22682;DHT22;11508;50.856;4.380;2023-09-19T14:48:07;20.00;1.00
22682;DHT22;11508;50.856;4.380;2023-09-19T14:50:33;20.00;1.00
22682;DHT22;11508;50.856;4.380;2023-09-19T14:52:58;20.00;1.00
22682;DHT22;11508;50.856;4.380;2023-09-19T14:55:27;20.10;1.00
22682;DHT22;11508;50.856;4.380;2023-09-19T14:57:54;20.10;1.00
22682;DHT22;11508;50.856;4.380;2023-09-19T15:02:49;19.90;1.00
22682;DHT22;11508;50.856;4.380;2023-09-19T15:05:16;20.60;99.90
22682;DHT22;11508;50.856;4.380;2023-09-19T15:07:42;19.80;99.90
22682;DHT22;11508;50.856;4.380;2023-09-19T15:10:08;19.70;99.90
22682;DHT22;11508;50.856;4.380;2023-09-19T15:12:35;19.80;99.90
22682;DHT22;11508;50.856;4.380;2023-09-19T15:15:04;19.90;99.90
22682;DHT22;11508;50.856;4.380;2023-09-19T15:17:33;19.90;99.90
22682;DHT22;11508;50.856;4.380;2023-09-19T15:19:59;19.80;99.90
22682;DHT22;11508;50.856;4.380;2023-09-19T15:22:25;19.90;99.90
22682;DHT22;11508;50.856;4.380;2023-09-19T15:24:52;19.70;99.90
22682;DHT22;11508;50.856;4.380;2023-09-19T15:27:18;19.70;99.90
22682;DHT22;11508;50.856;4.380;2023-09-19T15:29:45;19.70;1.00
22682;DHT22;11508;50.856;4.380;2023-09-19T15:32:11;19.60;1.00
22682;DHT22;11508;50.856;4.380;2023-09-19T15:34:37;19.60;74.00
22682;DHT22;11508;50.856;4.380;2023-09-19T15:37:03;19.60;94.40
22682;DHT22;11508;50.856;4.380;2023-09-19T15:42:02;19.50;99.90
22682;DHT22;11508;50.856;4.380;2023-09-19T15:44:29;19.50;1.00
22682;DHT22;11508;50.856;4.380;2023-09-19T15:46:56;19.50;91.80
22682;DHT22;11508;50.856;4.380;2023-09-19T15:49:22;19.50;1.00
22682;DHT22;11508;50.856;4.380;2023-09-19T15:51:48;19.60;43.00
22682;DHT22;11508;50.856;4.380;2023-09-19T15:56:45;19.50;99.90
22682;DHT22;11508;50.856;4.380;2023-09-19T15:59:11;19.50;99.90
22682;DHT22;11508;50.856;4.380;2023-09-19T16:01:41;19.40;1.00
22682;DHT22;11508;50.856;4.380;2023-09-19T16:04:08;19.40;99.90
22682;DHT22;11508;50.856;4.380;2023-09-19T16:06:35;19.30;99.90
22682;DHT22;11508;50.856;4.380;2023-09-19T16:09:00;19.30;99.90
22682;DHT22;11508;50.856;4.380;2023-09-19T16:11:30;19.30;1.00
22682;DHT22;11508;50.856;4.380;2023-09-19T16:13:57;19.30;1.00
22682;DHT22;11508;50.856;4.380;2023-09-19T16:16:24;19.30;99.90
22682;DHT22;11508;50.856;4.380;2023-09-19T16:18:56;19.20;99.90
22682;DHT22;11508;50.856;4.380;2023-09-19T16:21:24;19.30;99.90
22682;DHT22;11508;50.856;4.380;2023-09-19T16:23:50;19.20;99.90
22682;DHT22;11508;50.856;4.380;2023-09-19T16:26:17;19.40;99.90
22682;DHT22;11508;50.856;4.380;2023-09-19T16:28:47;19.40;99.90
22682;DHT22;11508;50.856;4.380;2023-09-19T16:31:15;19.40;99.90
22682;DHT22;11508;50.856;4.380;2023-09-19T16:33:43;19.40;99.90
22682;DHT22;11508;50.856;4.380;2023-09-19T16:36:14;19.30;99.90
22682;DHT22;11508;50.856;4.380;2023-09-19T16:38:41;19.30;99.90
22682;DHT22;11508;50.856;4.380;2023-09-19T16:41:08;19.30;1.00
22682;DHT22;11508;50.856;4.380;2023-09-19T16:48:27;19.10;99.90
22682;DHT22;11508;50.856;4.380;2023-09-19T16:53:21;19.10;99.90
22682;DHT22;11508;50.856;4.380;2023-09-19T16:55:48;19.10;1.00
22682;DHT22;11508;50.856;4.380;2023-09-19T16:58:14;19.00;1.00
22682;DHT22;11508;50.856;4.380;2023-09-19T17:00:41;19.10;99.90
22682;DHT22;11508;50.856;4.380;2023-09-19T17:03:12;19.00;99.90
22682;DHT22;11508;50.856;4.380;2023-09-19T17:05:38;19.00;1.00
22682;DHT22;11508;50.856;4.380;2023-09-19T17:10:35;18.90;1.00
22682;DHT22;11508;50.856;4.380;2023-09-19T17:13:04;18.80;12.10
22682;DHT22;11508;50.856;4.380;2023-09-19T17:15:33;18.90;92.90
22682;DHT22;11508;50.856;4.380;2023-09-19T17:20:26;18.80;99.90
22682;DHT22;11508;50.856;4.380;2023-09-19T17:22:56;18.70;99.90
22682;DHT22;11508;50.856;4.380;2023-09-19T17:25:22;18.70;99.90
22682;DHT22;11508;50.856;4.380;2023-09-19T17:27:48;18.70;99.90
22682;DHT22;11508;50.856;4.380;2023-09-19T17:30:15;18.60;99.90
22682;DHT22;11508;50.856;4.380;2023-09-19T17:32:44;21.60;99.90
22682;DHT22;11508;50.856;4.380;2023-09-19T17:35:11;18.50;99.90
22682;DHT22;11508;50.856;4.380;2023-09-19T17:37:37;18.50;99.90
22682;DHT22;11508;50.856;4.380;2023-09-19T17:40:08;18.40;99.90
22682;DHT22;11508;50.856;4.380;2023-09-19T17:42:42;18.50;99.90
22682;DHT22;11508;50.856;4.380;2023-09-19T17:45:12;18.50;99.90
22682;DHT22;11508;50.856;4.380;2023-09-19T17:47:43;18.50;99.90
22682;DHT22;11508;50.856;4.380;2023-09-19T17:50:09;18.50;99.90
22682;DHT22;11508;50.856;4.380;2023-09-19T17:52:44;18.50;99.90
22682;DHT22;11508;50.856;4.380;2023-09-19T17:55:12;18.50;99.90
22682;DHT22;11508;50.856;4.380;2023-09-19T17:57:40;18.40;99.90
22682;DHT22;11508;50.856;4.380;2023-09-19T18:00:07;18.50;99.90
22682;DHT22;11508;50.856;4.380;2023-09-19T18:02:34;18.60;99.90
22682;DHT22;11508;50.856;4.380;2023-09-19T18:05:00;18.60;99.90
22682;DHT22;11508;50.856;4.380;2023-09-19T18:07:26;18.60;99.90
22682;DHT22;11508;50.856;4.380;2023-09-19T18:09:52;18.50;99.90
22682;DHT22;11508;50.856;4.380;2023-09-19T18:14:44;18.50;99.90
22682;DHT22;11508;50.856;4.380;2023-09-19T18:17:10;18.50;99.90
22682;DHT22;11508;50.856;4.380;2023-09-19T18:26:55;18.30;99.90
22682;DHT22;11508;50.856;4.380;2023-09-19T18:29:21;18.40;99.90
22682;DHT22;11508;50.856;4.380;2023-09-19T18:31:46;18.40;99.90
22682;DHT22;11508;50.856;4.380;2023-09-19T18:34:12;18.50;99.90
22682;DHT22;11508;50.856;4.380;2023-09-19T18:36:37;18.40;99.90
22682;DHT22;11508;50.856;4.380;2023-09-19T18:39:04;18.40;99.90
22682;DHT22;11508;50.856;4.380;2023-09-19T18:41:30;18.40;99.90
22682;DHT22;11508;50.856;4.380;2023-09-19T18:46:26;18.50;99.90
22682;DHT22;11508;50.856;4.380;2023-09-19T18:48:57;18.50;99.90
22682;DHT22;11508;50.856;4.380;2023-09-19T18:51:22;18.50;99.90
22682;DHT22;11508;50.856;4.380;2023-09-19T18:53:50;18.50;99.90
22682;DHT22;11508;50.856;4.380;2023-09-19T18:56:17;18.50;99.90
22682;DHT22;11508;50.856;4.380;2023-09-19T19:01:11;18.50;99.90
22682;DHT22;11508;50.856;4.380;2023-09-19T19:06:11;18.50;99.90
22682;DHT22;11508;50.856;4.380;2023-09-19T19:08:41;18.50;99.90
22682;DHT22;11508;50.856;4.380;2023-09-19T19:11:10;18.40;99.90
22682;DHT22;11508;50.856;4.380;2023-09-19T19:13:36;18.50;99.90
22682;DHT22;11508;50.856;4.380;2023-09-19T19:16:02;18.50;99.90
22682;DHT22;11508;50.856;4.380;2023-09-19T19:18:28;18.50;99.90
22682;DHT22;11508;50.856;4.380;2023-09-19T19:20:58;18.50;99.90
22682;DHT22;11508;50.856;4.380;2023-09-19T19:28:20;18.50;99.90
22682;DHT22;11508;50.856;4.380;2023-09-19T19:30:46;18.50;99.90
22682;DHT22;11508;50.856;4.380;2023-09-19T19:33:14;18.60;99.90
22682;DHT22;11508;50.856;4.380;2023-09-19T19:38:07;18.60;99.90
22682;DHT22;11508;50.856;4.380;2023-09-19T19:53:24;18.60;99.90
22682;DHT22;11508;50.856;4.380;2023-09-19T19:55:50;18.70;99.90
22682;DHT22;11508;50.856;4.380;2023-09-19T19:58:17;18.70;99.90
22682;DHT22;11508;50.856;4.380;2023-09-19T20:00:43;18.70;99.90
22682;DHT22;11508;50.856;4.380;2023-09-19T20:06:32;18.70;99.90
22682;DHT22;11508;50.856;4.380;2023-09-19T20:08:57;18.70;99.90
22682;DHT22;11508;50.856;4.380;2023-09-19T20:11:23;18.70;99.90
22682;DHT22;11508;50.856;4.380;2023-09-19T20:13:57;18.80;99.90
22682;DHT22;11508;50.856;4.380;2023-09-19T20:16:25;18.80;99.90
22682;DHT22;11508;50.856;4.380;2023-09-19T20:18:58;18.80;99.90